Lahaina Weather    as of  Thu 20:21 04/24      Conditions     METAR     Leeward Waters     Hawaiian Islands     Policies
TONIGHT
Partly cloudy with scattered showers. Breezy. Lows 66-73. Northeast winds 15-25 mph with gusts-40 mph. Chance rain 50%.
FRIDAY
Mostly sunny. Scattered showers morning, then isolated showers afternoon. Windy. Highs 78-85. Northeast winds 15-30 mph. Chance rain 50%.
FRIDAY NIGHT
Partly cloudy with isolated showers. Breezy. Lows 66-73. Northeast winds 15-25 mph. Chance rain 20%.
SATURDAY
Mostly sunny. Isolated showers morning. Breezy. Highs 79-86. Northeast winds 15-25 mph with gusts-40 mph. Chance rain 20%.
SATURDAY NIGHT
Mostly cloudy with isolated showers. Lows 65-72. East winds 15-20 mph. Chance rain 20%.
Maui Satellite
Expected Radar Hazards
Predominant Wx
Radar
Hazard Chart
Windspeed Forecast Wind Gust Forecast Tropical Outlook
Windspeed Chart
Windgust Chart
Satellite

Current Conditions TOP

LocationWeatherTemp (F)Wind
Speed
Wind
Gusts
Wind
Dir
VisibilityDewpointPressure
(mb)
Lahaina / West MauiPartly Cloudy73.013.828.8Northeast15.0066.2--
Lanai City AirportFair69.011.5--Northeast10.0064.91018.4
Molokai AirportA Few Clouds72.09.223.0Northeast10.0069.11020.0
Kahului AirportPartly Cloudy74.013.823.0Northeast10.0066.91019.7
Honolulu International AirportPartly Cloudy and Breezy76.023.029.9Northeast10.0064.91018.9
Kailua / KonaOvercast79.05.8--South10.0066.91017.0

METAR TOP

PHJH 250350Z 04012G25KT 15SM FEW015 SCT030 23/19 A3006 RMK
PHNY 250556Z AUTO 04010KT 10SM CLR 21/18 A3013 RMK AO2 TSNO 53016
PHMK 250554Z AUTO 03008G20KT 10SM FEW036 22/21 A3011 RMK AO2
PHOG 250554Z 05012G20KT 10SM FEW020 SCT035 23/19 A3010 RMK AO2
PHNL 250553Z 06020G26KT 10SM FEW030 SCT065 24/18 A3009 RMK AO2 PK
PHKO 250553Z 16005KT 10SM OVC041 26/19 A3003 RMK AO2 SLP170
Tap to learn about METAR'

Leeward Waters Forecasts TOP

MAUI COUNTY LEEWARD WATERS MAALAEA BAY PAILOLO CHANNEL
Headlines
SMALL CRAFT ADVISORY IN EFFECT UNTIL 6 PM HST SATURDAY
Headlines
SMALL CRAFT ADVISORY IN EFFECT UNTIL 6 PM HST SATURDAY
Headlines
SMALL CRAFT ADVISORY IN EFFECT UNTIL 6 PM HST SATURDAY
TONIGHT
Northeast winds 20 kt. Wind waves 8 ft. Northwest swell 5 ft. Isolated showers.
TONIGHT
Northeast winds-25 kt. Wind waves 4 ft. Isolated showers evening.
TONIGHT
East winds-30 kt. Wind waves 13 ft. Northwest swell 4 ft. Isolated showers.
FRIDAY
Northeast winds 20 kt. Wind waves 8 ft. Northwest swell 5 ft. Isolated showers morning.
FRIDAY
Northeast winds-25 kt. Wind waves 4 ft.
FRIDAY
East winds-30 kt. Wind waves 13 ft. Northwest swell 4 ft. Isolated showers through the day.
FRIDAY NIGHT
Northeast winds 20 kt. Wind waves 8 ft. Northwest swell 4 ft. Isolated showers.
FRIDAY NIGHT
Northeast winds-25 kt. Wind waves 4 ft.
FRIDAY NIGHT
East winds-30 kt. Wind waves 13 ft. Northwest swell 3 ft. Isolated showers evening. Scattered showers after midnight.
SATURDAY
Northeast winds 20 kt. Wind waves 8 ft. Northwest swell 3 ft. Isolated showers morning.
SATURDAY
Northeast winds-25 kt. Wind waves 4 ft.
SATURDAY
East winds-30 kt. Wind waves 13 ft. Northwest swell 3 ft. Isolated showers morning.

Hawaiian Islands Weather TOP

Synopsis: Breezy trade winds will gradually increase into Friday and Saturday, weaken Sunday and Monday, then recover by the middle next week as high pressure-our north fluctuates in strength. Clouds and showers will favor windward and mauka areas through the forecast period.
Discussion: A 1029 mb high centered near 35°N 152°W, about 930 miles north northeast the main Hawaiian islands, has ridges extending southeast through 31°N 130°W and southwest through 28°N 180°W, spanning the central north Pacific. The pressure gradient between the high with its ridges-our north and equatorial low pressure is sufficiently steep-support moderate-locally strong trade winds across local waters this afternoon. Because this, and because anticipated stronger winds Friday through Saturday, a small craft advisory is in effect for all local waters through Saturday ...
Aviation: Strong trades e-ne g25-30 kt continue-focus fast moving shra/ra and isol MVFR conditions along windward sections. Elsewhere mainly VFR will prevail. Bkn-ovc CI will increase aoa fl300 aft 25/10Z and persist through the remainder the period. Airmet tango remains posted for llvl lee turb due the strong trades. This will remain in effect until further notice. High lvl chop may increase aft 25/10Z over the wrn fa but should remain below airmet criteria.
Marine: A small craft advisory is in effect for all waters in anticipation strengthening winds and building combined seas through Saturday afternoon. Northeasterly winds will reach their minimum speeds late Sunday or Monday as the ridge-our north weakens, and then increase again by the middle next week. Persistent trade winds will build seas, producing rough surf near the advisory level along east-facing shores by Friday. Increasing seas also contribute-the need for the small craft advisory. Seas will diminish with the winds late Saturday and Sunday. A northwest swell will produce ...

Policies TOP

Terms of Service
USE THIS SITE AT YOUR OWN RISK!!! This page is an artistic expression not scientific communication. No warranties expressed or implied. None. Zip. Nada. This entertainment site is a programming exercise for retrieving NOAA/NWS/NASA data and experimenting with layout. No site data are verified. Timeliness not assured. Browsers other than Chrome might be sad.

Privacy
lahainaweather.com (or .org, .net) does NOT request, record nor retain any personally identifiable information. Page views may be counted. Caller's IP address may be logged.